Legend :    VFR   Marginal VFR   IFR   Intensive IFR   Very Intensive IFR
Visi :
Ceiling :
>= 8 km
>= 3000ft
5 to 8 km
1000 to 3000 ft
1500m to 5 km
500 to 1000 ft
800 to 1500m
200 to 500 ft
< 800m
< 200 ft
Symbols :   Thunderstorms  Fog  Heavy snow  Heavy precipitations  Wind > 20 kt






- Airport Elevation : 1333 ft
- IATA code : ICT


KICT - Wichita Mid Continent

CURRENT METAR :
  • 200053Z 36018G28KT 10SM OVC095 M07/M17 A3047 RMK AO2 PK WND 02033/0008 SLP336 T10671167

EXPIRED METARs :
  • 192353Z 36020G29KT 10SM SCT120 BKN150 OVC190 M06/M17 A3044 RMK AO2 PK WND 36034/2254 SLP322 T10611167 11017 21061 51031
  • 192253Z 36021G30KT 10SM FEW120 SCT150 BKN190 BKN220 M05/M16 A3041 RMK AO2 PK WND 01034/2157 SLP311 T10501156

TAF KICT
Valid from the 20 at 00:00 until the 21 at 00:00 UTC


192338Z 2000/2024 36021G30KT P6SM BKN150
FM200600 02015G23KT P6SM SCT120
FM200900 02013KT P6SM SCT250
FM202200 03006KT P6SM FEW200
KZKC FIR / North America


LOGIN :  

Disclaimer |     EN      FR      IT 



MET'MAP, your aeronautical weather chart ! - Copyright ORBIFLY December 2007 - Disclaimer


ORBIFLY MET'MAP TEAM :

Programming & Development : Alexandra Zaïnal
Concept & original design : Baudouin d'Aumeries
Assistance for programming : Marc-Olivier Méhu
Technical & hardware support : Manuel Goepfert

Contact : metmap@orbifly.com




SOURCES & CREDITS :

   NOAA       Earth
Advisory